Sabine, Louisiana
Current Conditions -  °F | °C
As of 8:56 PM on Monday 26 Jan 2015 (Local Time) from KAQV Reporting Station
Clear Clear  
Wind Chill: 50°   Ceiling: Unl
Heat Index: 50°   Visibility: 10mi
Dew Point: 37°   Wind: 5mph
Humidity: 61%   Direction: 240°WSW
Pressure: 30.08"   Gusts: NA
Location:  31.6044°N, 93.4433°W
Report Text: KAQV 270256Z AUTO 24004KT 10SM CLR 10/03 A3008 RMK AO2 SLP188 T01000028 53001
Loading
Personal Weather Stations






























Interactive Weather Map New forecast layout! Learn more

10-Day Weather Forecast

Advertisements
Track Severe Weather on mobile